Terminal Aerodrome Forecast
Issued by NWS Cleveland, OH

Home | Current Version | Previous Version | Text Only | Print | Product List | Glossary On
Versions: 1 2 3 4 5 6 7 8 9 10 11 12 13 14 15 16 17 18 19 20
000
FTUS41 KCLE 231100
TAFYNG
TAF
KYNG 231138Z 2312/2412 22006KT P6SM SCT040 OVC100
      TEMPO 2312/2315 4SM -SHRA BKN040
     FM231500 26006KT P6SM SCT015 OVC100
      TEMPO 2315/2317 5SM -SHRA BKN015
     FM231700 33010KT P6SM OVC015
     FM232000 33010KT P6SM BKN025
     FM232200 33008KT P6SM BKN040
     FM240500 35006KT P6SM SKC=

USA.gov is the U.S. government's official web portal to all federal, state and local government web resources and services.